createdAt,value
2019-04-05T19:03:19.140Z,178.00
2019-04-05T19:05:50.388Z,165.75
2019-04-05T19:08:21.577Z,163.97
2019-04-05T19:10:52.611Z,159.03
2019-04-05T19:13:24.070Z,135.93
2019-04-05T19:15:55.136Z,124.55
2019-04-05T19:18:26.381Z,130.90
2019-04-05T19:20:57.400Z,162.18
2019-04-05T19:23:28.413Z,96.45
2019-04-05T19:25:59.946Z,100.65
2019-04-05T19:28:31.088Z,98.50
2019-04-05T19:48:52.379Z,120.40
2019-04-05T19:51:23.444Z,122.10
2019-04-05T19:54:01.095Z,123.30
2019-04-05T19:56:27.254Z,113.77
2019-04-05T19:58:58.393Z,86.45
2019-04-05T20:01:29.433Z,82.60
2019-04-05T20:04:00.757Z,84.03
2019-04-05T20:06:32.317Z,93.33
2019-04-05T20:09:05.125Z,138.20
2019-04-05T20:11:36.514Z,124.82
2019-04-05T20:14:07.626Z,114.08
2019-04-05T20:16:38.886Z,138.40
2019-04-05T20:19:10.010Z,120.42
2019-04-05T20:21:41.153Z,142.77
2019-04-05T20:24:14.345Z,132.85
2019-04-05T20:26:45.176Z,139.60
2019-04-05T20:29:16.265Z,134.20
2019-04-05T20:31:48.305Z,140.52
2019-04-05T20:34:19.641Z,135.80
2019-04-05T20:36:50.617Z,127.60
2019-04-05T20:39:21.765Z,172.45
2019-04-05T20:41:52.873Z,209.03
2019-04-05T20:44:24.028Z,210.68
2019-04-05T20:46:55.011Z,183.18
2019-04-05T20:49:26.235Z,136.47
2019-04-05T20:51:57.245Z,156.02
2019-04-05T20:54:28.379Z,168.78
2019-04-05T20:56:59.423Z,142.07
2019-04-05T20:59:30.567Z,154.20
2019-04-05T21:02:01.708Z,155.10
2019-04-05T21:04:33.919Z,153.93
2019-04-05T21:07:06.088Z,119.37
2019-04-05T21:09:37.106Z,131.97
2019-04-05T21:12:08.258Z,204.18
2019-04-05T21:14:39.388Z,139.45
2019-04-05T21:17:10.466Z,136.57
2019-04-05T21:19:42.588Z,116.12
2019-04-05T21:22:14.760Z,112.92
2019-04-05T21:24:45.901Z,109.70
2019-04-05T21:27:19.323Z,150.57
2019-04-05T21:29:50.429Z,133.30
2019-04-05T21:32:21.488Z,137.15
2019-04-05T21:34:52.663Z,102.78
2019-04-05T21:37:23.669Z,93.10
2019-04-05T21:39:54.800Z,88.37
2019-04-05T21:42:26.326Z,84.20
2019-04-05T21:44:57.749Z,88.92
2019-04-05T21:47:29.083Z,102.20
2019-04-05T21:50:00.524Z,86.25
2019-04-05T21:52:31.978Z,89.70
2019-04-05T21:55:04.524Z,92.55
2019-04-05T21:57:36.142Z,95.10
2019-04-05T22:00:23.127Z,130.90
2019-04-05T22:02:56.119Z,117.67
2019-04-05T22:05:27.590Z,129.68
2019-04-05T22:07:58.946Z,123.50
2019-04-05T22:10:30.405Z,143.50
2019-04-05T22:13:04.392Z,103.55
2019-04-05T22:15:36.311Z,86.12
2019-04-05T22:18:07.710Z,89.97
2019-04-05T22:20:39.022Z,96.50
2019-04-05T22:23:10.408Z,137.75
2019-04-05T22:25:41.711Z,103.22
2019-04-05T22:28:13.022Z,104.97
2019-04-05T22:30:44.463Z,99.05
2019-04-05T22:33:15.841Z,109.05
2019-04-05T22:35:47.207Z,92.20
2019-04-05T22:38:18.537Z,89.72
2019-04-05T22:40:49.908Z,86.15
2019-04-05T22:43:21.271Z,99.77
2019-04-05T22:45:53.111Z,120.20
2019-04-05T22:48:24.518Z,172.70
2019-04-05T22:50:55.904Z,104.60
2019-04-05T22:53:27.342Z,165.45
2019-04-05T22:55:58.806Z,149.30
2019-04-05T22:58:31.413Z,139.75
2019-04-05T23:01:02.917Z,152.07
2019-04-05T23:03:34.408Z,106.72
2019-04-05T23:06:06.983Z,112.28
2019-04-05T23:08:38.755Z,99.28
2019-04-05T23:11:10.107Z,102.72
2019-04-05T23:13:41.507Z,109.97
2019-04-05T23:16:12.978Z,108.07
2019-04-05T23:18:44.309Z,111.00
2019-04-05T23:21:15.820Z,113.68
2019-04-05T23:23:47.281Z,97.45
2019-04-05T23:26:18.723Z,97.27
2019-04-05T23:28:50.142Z,88.05
2019-04-05T23:31:21.708Z,92.75
2019-04-05T23:33:53.200Z,81.30
2019-04-05T23:36:24.567Z,87.95
2019-04-05T23:38:55.895Z,91.15
2019-04-05T23:41:27.727Z,98.05
2019-04-05T23:43:59.099Z,140.03
2019-04-05T23:46:30.597Z,183.90
2019-04-05T23:49:02.206Z,124.95
2019-04-05T23:51:34.150Z,128.80
2019-04-05T23:54:05.666Z,114.82
2019-04-05T23:56:37.209Z,150.15
2019-04-05T23:59:08.813Z,91.97
